首页
METAR-TAF:

METAR-TAF

机场 :

伯明翰机场

伯明翰, 英格兰

纬度: 52-27N, 经度: 001-44W, 海拔: 99米

当前天气观测

该预报发布于30分钟前的15:50 UTC
风速11节,风向北转西北
温度 13°C
湿度 77%
气压 997 hPa
能见度10公里或以上
多云层高于2000英尺

METAR: EGBB 231550Z 33011KT 9999 BKN020 13/09 Q0997

时间: 17:20 (16:20 UTC)

预报

该预报发布于5小时和26分钟前的10:54 UTC
预报有效从23日的 12点(UTC)到 24日的 12点(UTC)
风速10节,风向西转西南
能见度10公里或以上
散云层高于2000英尺
成为
从 23日的 12点(UTC)到 23日的 15点(UTC)
风速7节,风向西北
短暂存在
从 23日的 12点(UTC)到 23日的 15点(UTC)
能見度: 6000
多云层高于1100英尺
几率 30% :
短暂存在
从 23日的 12点(UTC)到 23日的 13点(UTC)
能見度: 3000
多云层高于800英尺
大雨
几率 40% :
短暂存在
从 23日的 15点(UTC)到 23日的 22点(UTC)
能見度: 6000
多云层高于1400英尺
短暂存在
从 24日的 04点(UTC)到 24日的 12点(UTC)
风速15节,风向西南,有时为28节阵风
能見度: 6000
多云层高于1400英尺
阵雨
几率 30% :
短暂存在
从 24日的 10点(UTC)到 24日的 12点(UTC)
能見度: 4000
大阵雨

TAF: EGBB 231054Z 2312/2412 24010KT 9999 SCT020 BECMG 2312/2315 31007KT TEMPO 2312/2315 6000 RA BKN011 PROB30 TEMPO 2312/2313 3000 +RA BKN008 PROB40 TEMPO 2315/2322 6000 RA BKN014 TEMPO 2404/2412 22015G28KT 6000 SHRA BKN014 PROB30 TEMPO 2410/2412 4000 +SHRA

超过4000个机场的气象观测和天气预报(METAR&TAF报告)。

可查询的气象台以黄色和红色小点在地图上表示。

将鼠标移到小点上方,可查看气象台名称。

然后点击查看天气观测和预报。

如需切换地图:点击带黑十字的绿色按钮放大地图;点击带横线的绿色按钮缩小地图;或者点击绿色箭头查看邻近地区的地图。


METAR-TAF: